sensor_id;sensor_type;location;lat;lon;timestamp;P1;durP1;ratioP1;P2;durP2;ratioP2
44272;SDS011;29964;17.182;-96.766;2023-05-07T00:00:17;15.50;;;8.13;;
44272;SDS011;29964;17.182;-96.766;2023-05-07T00:02:45;14.05;;;8.05;;
44272;SDS011;29964;17.182;-96.766;2023-05-07T00:05:11;9.25;;;7.45;;
44272;SDS011;29964;17.182;-96.766;2023-05-07T00:07:38;18.00;;;8.45;;
44272;SDS011;29964;17.182;-96.766;2023-05-07T00:10:05;13.18;;;8.88;;
44272;SDS011;29964;17.182;-96.766;2023-05-07T00:12:32;9.88;;;7.85;;
44272;SDS011;29964;17.182;-96.766;2023-05-07T00:15:01;10.27;;;7.22;;
44272;SDS011;29964;17.182;-96.766;2023-05-07T00:17:28;12.23;;;7.53;;
44272;SDS011;29964;17.182;-96.766;2023-05-07T00:19:54;13.65;;;7.45;;
44272;SDS011;29964;17.182;-96.766;2023-05-07T00:22:21;12.27;;;7.50;;
44272;SDS011;29964;17.182;-96.766;2023-05-07T00:24:48;11.52;;;8.15;;
44272;SDS011;29964;17.182;-96.766;2023-05-07T00:27:15;13.15;;;9.00;;
44272;SDS011;29964;17.182;-96.766;2023-05-07T00:29:42;9.73;;;7.65;;
44272;SDS011;29964;17.182;-96.766;2023-05-07T00:32:08;10.27;;;7.10;;
44272;SDS011;29964;17.182;-96.766;2023-05-07T00:34:35;17.60;;;9.55;;
44272;SDS011;29964;17.182;-96.766;2023-05-07T00:37:11;13.55;;;8.85;;
44272;SDS011;29964;17.182;-96.766;2023-05-07T00:39:37;8.30;;;6.88;;
44272;SDS011;29964;17.182;-96.766;2023-05-07T00:42:04;15.18;;;9.25;;
44272;SDS011;29964;17.182;-96.766;2023-05-07T00:44:31;19.00;;;9.88;;
44272;SDS011;29964;17.182;-96.766;2023-05-07T00:46:58;11.93;;;8.38;;
44272;SDS011;29964;17.182;-96.766;2023-05-07T00:49:33;15.63;;;8.35;;
44272;SDS011;29964;17.182;-96.766;2023-05-07T00:52:01;16.13;;;9.98;;
44272;SDS011;29964;17.182;-96.766;2023-05-07T00:54:28;12.75;;;8.93;;
44272;SDS011;29964;17.182;-96.766;2023-05-07T00:56:55;10.35;;;8.00;;
44272;SDS011;29964;17.182;-96.766;2023-05-07T00:59:22;22.50;;;8.48;;
44272;SDS011;29964;17.182;-96.766;2023-05-07T01:01:49;15.80;;;9.18;;
44272;SDS011;29964;17.182;-96.766;2023-05-07T01:04:17;18.85;;;8.68;;
44272;SDS011;29964;17.182;-96.766;2023-05-07T01:06:44;14.63;;;8.27;;
44272;SDS011;29964;17.182;-96.766;2023-05-07T01:09:11;12.85;;;9.23;;
44272;SDS011;29964;17.182;-96.766;2023-05-07T01:11:38;18.15;;;9.07;;
44272;SDS011;29964;17.182;-96.766;2023-05-07T01:14:06;15.63;;;8.80;;
44272;SDS011;29964;17.182;-96.766;2023-05-07T01:16:33;18.00;;;9.27;;
44272;SDS011;29964;17.182;-96.766;2023-05-07T01:19:00;10.63;;;8.00;;
44272;SDS011;29964;17.182;-96.766;2023-05-07T01:21:27;15.38;;;8.35;;
44272;SDS011;29964;17.182;-96.766;2023-05-07T01:23:56;13.60;;;8.30;;
44272;SDS011;29964;17.182;-96.766;2023-05-07T01:26:23;11.65;;;7.72;;
44272;SDS011;29964;17.182;-96.766;2023-05-07T01:28:51;15.07;;;10.32;;
44272;SDS011;29964;17.182;-96.766;2023-05-07T01:31:17;17.45;;;8.02;;
44272;SDS011;29964;17.182;-96.766;2023-05-07T01:33:44;10.98;;;8.25;;
44272;SDS011;29964;17.182;-96.766;2023-05-07T01:36:12;15.93;;;9.53;;
44272;SDS011;29964;17.182;-96.766;2023-05-07T01:38:39;12.57;;;8.30;;
44272;SDS011;29964;17.182;-96.766;2023-05-07T01:41:07;9.37;;;8.00;;
44272;SDS011;29964;17.182;-96.766;2023-05-07T01:43:34;11.13;;;7.93;;
44272;SDS011;29964;17.182;-96.766;2023-05-07T01:46:01;17.00;;;10.50;;
44272;SDS011;29964;17.182;-96.766;2023-05-07T01:48:29;13.52;;;8.65;;
44272;SDS011;29964;17.182;-96.766;2023-05-07T01:50:55;24.13;;;10.47;;
44272;SDS011;29964;17.182;-96.766;2023-05-07T01:53:22;13.10;;;9.90;;
44272;SDS011;29964;17.182;-96.766;2023-05-07T01:55:49;11.13;;;8.03;;
44272;SDS011;29964;17.182;-96.766;2023-05-07T01:58:16;15.93;;;9.80;;
44272;SDS011;29964;17.182;-96.766;2023-05-07T02:00:42;14.70;;;9.93;;
44272;SDS011;29964;17.182;-96.766;2023-05-07T02:03:09;9.63;;;7.60;;
44272;SDS011;29964;17.182;-96.766;2023-05-07T02:05:36;15.90;;;8.77;;
44272;SDS011;29964;17.182;-96.766;2023-05-07T02:08:03;12.63;;;9.03;;
44272;SDS011;29964;17.182;-96.766;2023-05-07T02:10:30;13.90;;;8.00;;
44272;SDS011;29964;17.182;-96.766;2023-05-07T02:12:56;16.27;;;9.90;;
44272;SDS011;29964;17.182;-96.766;2023-05-07T02:15:23;10.23;;;7.57;;
44272;SDS011;29964;17.182;-96.766;2023-05-07T02:18:00;12.73;;;8.67;;
44272;SDS011;29964;17.182;-96.766;2023-05-07T02:20:27;15.33;;;8.10;;
44272;SDS011;29964;17.182;-96.766;2023-05-07T02:22:54;10.53;;;8.27;;
44272;SDS011;29964;17.182;-96.766;2023-05-07T02:25:21;10.73;;;7.50;;
44272;SDS011;29964;17.182;-96.766;2023-05-07T02:27:47;14.43;;;9.13;;
44272;SDS011;29964;17.182;-96.766;2023-05-07T02:30:14;17.80;;;7.60;;
44272;SDS011;29964;17.182;-96.766;2023-05-07T02:32:41;12.17;;;8.47;;
44272;SDS011;29964;17.182;-96.766;2023-05-07T02:35:08;14.33;;;7.60;;
44272;SDS011;29964;17.182;-96.766;2023-05-07T02:37:35;14.20;;;8.87;;
44272;SDS011;29964;17.182;-96.766;2023-05-07T02:40:01;14.73;;;9.00;;
44272;SDS011;29964;17.182;-96.766;2023-05-07T02:42:29;15.63;;;9.00;;
44272;SDS011;29964;17.182;-96.766;2023-05-07T02:44:56;7.80;;;6.30;;
44272;SDS011;29964;17.182;-96.766;2023-05-07T02:47:23;11.50;;;8.17;;
44272;SDS011;29964;17.182;-96.766;2023-05-07T02:49:52;10.77;;;8.73;;
44272;SDS011;29964;17.182;-96.766;2023-05-07T02:52:19;15.13;;;9.97;;
44272;SDS011;29964;17.182;-96.766;2023-05-07T02:54:46;12.23;;;8.90;;
44272;SDS011;29964;17.182;-96.766;2023-05-07T02:57:13;17.07;;;9.83;;
44272;SDS011;29964;17.182;-96.766;2023-05-07T02:59:40;16.47;;;10.47;;
44272;SDS011;29964;17.182;-96.766;2023-05-07T03:02:06;10.47;;;8.80;;
44272;SDS011;29964;17.182;-96.766;2023-05-07T03:04:33;11.20;;;7.67;;
44272;SDS011;29964;17.182;-96.766;2023-05-07T03:07:00;13.07;;;8.00;;
44272;SDS011;29964;17.182;-96.766;2023-05-07T03:09:27;9.07;;;6.93;;
44272;SDS011;29964;17.182;-96.766;2023-05-07T03:11:53;13.93;;;8.67;;
44272;SDS011;29964;17.182;-96.766;2023-05-07T03:14:20;12.90;;;9.87;;
44272;SDS011;29964;17.182;-96.766;2023-05-07T03:16:47;9.97;;;7.43;;
44272;SDS011;29964;17.182;-96.766;2023-05-07T03:19:14;16.33;;;8.03;;
44272;SDS011;29964;17.182;-96.766;2023-05-07T03:21:40;15.50;;;8.83;;
44272;SDS011;29964;17.182;-96.766;2023-05-07T03:24:07;14.67;;;8.67;;
44272;SDS011;29964;17.182;-96.766;2023-05-07T03:26:34;11.70;;;7.30;;
44272;SDS011;29964;17.182;-96.766;2023-05-07T03:29:01;10.47;;;6.43;;
44272;SDS011;29964;17.182;-96.766;2023-05-07T03:31:27;19.77;;;8.90;;
44272;SDS011;29964;17.182;-96.766;2023-05-07T03:33:55;15.43;;;9.07;;
44272;SDS011;29964;17.182;-96.766;2023-05-07T03:36:22;14.00;;;7.77;;
44272;SDS011;29964;17.182;-96.766;2023-05-07T03:38:50;18.67;;;10.20;;
44272;SDS011;29964;17.182;-96.766;2023-05-07T03:41:17;18.27;;;8.67;;
44272;SDS011;29964;17.182;-96.766;2023-05-07T03:43:43;9.43;;;7.17;;
44272;SDS011;29964;17.182;-96.766;2023-05-07T03:46:10;18.43;;;9.00;;
44272;SDS011;29964;17.182;-96.766;2023-05-07T03:48:37;11.33;;;7.97;;
44272;SDS011;29964;17.182;-96.766;2023-05-07T03:51:04;10.87;;;7.20;;
44272;SDS011;29964;17.182;-96.766;2023-05-07T03:53:30;8.83;;;6.30;;
44272;SDS011;29964;17.182;-96.766;2023-05-07T03:55:57;19.57;;;8.83;;
44272;SDS011;29964;17.182;-96.766;2023-05-07T03:58:24;38.63;;;8.17;;
44272;SDS011;29964;17.182;-96.766;2023-05-07T04:00:51;10.00;;;6.87;;
44272;SDS011;29964;17.182;-96.766;2023-05-07T04:03:17;8.40;;;5.87;;
44272;SDS011;29964;17.182;-96.766;2023-05-07T04:05:44;11.57;;;7.00;;
44272;SDS011;29964;17.182;-96.766;2023-05-07T04:08:11;17.80;;;7.93;;
44272;SDS011;29964;17.182;-96.766;2023-05-07T04:10:38;9.73;;;7.73;;
44272;SDS011;29964;17.182;-96.766;2023-05-07T04:13:05;13.93;;;8.57;;
44272;SDS011;29964;17.182;-96.766;2023-05-07T04:15:32;10.57;;;5.80;;
44272;SDS011;29964;17.182;-96.766;2023-05-07T04:17:58;8.27;;;5.80;;
44272;SDS011;29964;17.182;-96.766;2023-05-07T04:20:25;9.07;;;6.07;;
44272;SDS011;29964;17.182;-96.766;2023-05-07T04:22:52;12.27;;;6.83;;
44272;SDS011;29964;17.182;-96.766;2023-05-07T04:25:18;11.03;;;7.07;;
44272;SDS011;29964;17.182;-96.766;2023-05-07T04:27:45;8.57;;;6.37;;
44272;SDS011;29964;17.182;-96.766;2023-05-07T04:30:12;17.53;;;5.97;;
44272;SDS011;29964;17.182;-96.766;2023-05-07T04:32:39;9.57;;;6.03;;
44272;SDS011;29964;17.182;-96.766;2023-05-07T04:35:06;10.57;;;6.90;;
44272;SDS011;29964;17.182;-96.766;2023-05-07T04:37:33;8.60;;;6.77;;
44272;SDS011;29964;17.182;-96.766;2023-05-07T04:40:00;7.50;;;4.90;;
44272;SDS011;29964;17.182;-96.766;2023-05-07T04:42:28;12.03;;;5.50;;
44272;SDS011;29964;17.182;-96.766;2023-05-07T04:44:55;5.60;;;4.73;;
44272;SDS011;29964;17.182;-96.766;2023-05-07T04:47:21;5.77;;;4.43;;
44272;SDS011;29964;17.182;-96.766;2023-05-07T04:49:48;9.50;;;5.40;;
44272;SDS011;29964;17.182;-96.766;2023-05-07T04:52:15;11.07;;;7.13;;
44272;SDS011;29964;17.182;-96.766;2023-05-07T04:54:42;8.77;;;5.93;;
44272;SDS011;29964;17.182;-96.766;2023-05-07T04:57:09;8.77;;;6.30;;
44272;SDS011;29964;17.182;-96.766;2023-05-07T04:59:35;8.80;;;6.00;;
44272;SDS011;29964;17.182;-96.766;2023-05-07T05:02:02;11.30;;;7.00;;
44272;SDS011;29964;17.182;-96.766;2023-05-07T05:04:32;11.57;;;6.97;;
44272;SDS011;29964;17.182;-96.766;2023-05-07T05:06:58;10.90;;;7.60;;
44272;SDS011;29964;17.182;-96.766;2023-05-07T05:09:25;10.53;;;7.00;;
44272;SDS011;29964;17.182;-96.766;2023-05-07T05:11:52;12.37;;;8.20;;
44272;SDS011;29964;17.182;-96.766;2023-05-07T05:14:19;12.20;;;7.43;;
44272;SDS011;29964;17.182;-96.766;2023-05-07T05:16:45;10.13;;;7.13;;
44272;SDS011;29964;17.182;-96.766;2023-05-07T05:19:12;16.53;;;7.90;;
44272;SDS011;29964;17.182;-96.766;2023-05-07T05:21:39;19.70;;;8.37;;
44272;SDS011;29964;17.182;-96.766;2023-05-07T05:24:06;10.63;;;5.27;;
44272;SDS011;29964;17.182;-96.766;2023-05-07T05:26:32;16.37;;;6.97;;
44272;SDS011;29964;17.182;-96.766;2023-05-07T05:28:59;8.57;;;5.53;;
44272;SDS011;29964;17.182;-96.766;2023-05-07T05:31:26;7.33;;;5.53;;
44272;SDS011;29964;17.182;-96.766;2023-05-07T05:33:53;7.17;;;5.63;;
44272;SDS011;29964;17.182;-96.766;2023-05-07T05:36:19;7.17;;;4.97;;
44272;SDS011;29964;17.182;-96.766;2023-05-07T05:38:46;18.43;;;6.20;;
44272;SDS011;29964;17.182;-96.766;2023-05-07T05:41:13;8.70;;;5.53;;
44272;SDS011;29964;17.182;-96.766;2023-05-07T05:43:40;13.73;;;6.30;;
44272;SDS011;29964;17.182;-96.766;2023-05-07T05:46:06;5.67;;;4.47;;
44272;SDS011;29964;17.182;-96.766;2023-05-07T05:48:36;7.50;;;4.77;;
44272;SDS011;29964;17.182;-96.766;2023-05-07T05:51:03;9.90;;;6.17;;
44272;SDS011;29964;17.182;-96.766;2023-05-07T05:53:29;4.80;;;3.67;;
44272;SDS011;29964;17.182;-96.766;2023-05-07T05:55:56;9.20;;;5.07;;
44272;SDS011;29964;17.182;-96.766;2023-05-07T05:58:23;6.43;;;4.37;;
44272;SDS011;29964;17.182;-96.766;2023-05-07T06:00:50;10.63;;;4.97;;
44272;SDS011;29964;17.182;-96.766;2023-05-07T06:03:17;8.43;;;4.73;;
44272;SDS011;29964;17.182;-96.766;2023-05-07T06:05:44;8.10;;;6.00;;
44272;SDS011;29964;17.182;-96.766;2023-05-07T06:08:11;6.67;;;4.63;;
44272;SDS011;29964;17.182;-96.766;2023-05-07T06:10:38;8.07;;;4.73;;
44272;SDS011;29964;17.182;-96.766;2023-05-07T06:13:05;7.30;;;4.77;;
44272;SDS011;29964;17.182;-96.766;2023-05-07T06:15:32;6.37;;;3.93;;
44272;SDS011;29964;17.182;-96.766;2023-05-07T06:17:58;4.03;;;2.93;;
44272;SDS011;29964;17.182;-96.766;2023-05-07T06:20:25;7.60;;;4.17;;
44272;SDS011;29964;17.182;-96.766;2023-05-07T06:22:52;8.17;;;5.57;;
44272;SDS011;29964;17.182;-96.766;2023-05-07T06:25:18;8.07;;;4.43;;
44272;SDS011;29964;17.182;-96.766;2023-05-07T06:27:45;5.53;;;3.27;;
44272;SDS011;29964;17.182;-96.766;2023-05-07T06:30:12;5.73;;;3.57;;
44272;SDS011;29964;17.182;-96.766;2023-05-07T06:32:40;7.77;;;5.43;;
44272;SDS011;29964;17.182;-96.766;2023-05-07T06:35:07;9.03;;;5.87;;
44272;SDS011;29964;17.182;-96.766;2023-05-07T06:37:34;10.00;;;6.40;;
44272;SDS011;29964;17.182;-96.766;2023-05-07T06:40:04;9.20;;;5.77;;
44272;SDS011;29964;17.182;-96.766;2023-05-07T06:42:31;9.53;;;4.80;;
44272;SDS011;29964;17.182;-96.766;2023-05-07T06:44:58;6.17;;;4.57;;
44272;SDS011;29964;17.182;-96.766;2023-05-07T06:47:24;7.67;;;4.73;;
44272;SDS011;29964;17.182;-96.766;2023-05-07T06:49:51;9.47;;;5.80;;
44272;SDS011;29964;17.182;-96.766;2023-05-07T06:52:18;7.27;;;4.63;;
44272;SDS011;29964;17.182;-96.766;2023-05-07T06:54:45;8.83;;;5.30;;
44272;SDS011;29964;17.182;-96.766;2023-05-07T06:57:11;9.00;;;6.00;;
44272;SDS011;29964;17.182;-96.766;2023-05-07T06:59:38;7.47;;;5.13;;
44272;SDS011;29964;17.182;-96.766;2023-05-07T07:02:05;6.00;;;4.60;;
44272;SDS011;29964;17.182;-96.766;2023-05-07T07:04:32;11.50;;;5.40;;
44272;SDS011;29964;17.182;-96.766;2023-05-07T07:06:59;10.80;;;4.67;;
44272;SDS011;29964;17.182;-96.766;2023-05-07T07:09:26;4.70;;;4.20;;
44272;SDS011;29964;17.182;-96.766;2023-05-07T07:11:53;11.77;;;5.77;;
44272;SDS011;29964;17.182;-96.766;2023-05-07T07:14:19;16.83;;;6.33;;
44272;SDS011;29964;17.182;-96.766;2023-05-07T07:16:46;11.43;;;5.77;;
44272;SDS011;29964;17.182;-96.766;2023-05-07T07:19:13;9.93;;;6.00;;
44272;SDS011;29964;17.182;-96.766;2023-05-07T07:21:43;5.23;;;4.23;;
44272;SDS011;29964;17.182;-96.766;2023-05-07T07:24:10;12.00;;;5.00;;
44272;SDS011;29964;17.182;-96.766;2023-05-07T07:26:36;9.23;;;5.10;;
44272;SDS011;29964;17.182;-96.766;2023-05-07T07:29:05;6.73;;;4.87;;
44272;SDS011;29964;17.182;-96.766;2023-05-07T07:31:32;7.73;;;5.43;;
44272;SDS011;29964;17.182;-96.766;2023-05-07T07:33:58;11.50;;;6.27;;
44272;SDS011;29964;17.182;-96.766;2023-05-07T07:36:25;7.17;;;5.20;;
44272;SDS011;29964;17.182;-96.766;2023-05-07T07:38:53;10.77;;;5.40;;
44272;SDS011;29964;17.182;-96.766;2023-05-07T07:41:20;4.67;;;3.90;;
44272;SDS011;29964;17.182;-96.766;2023-05-07T07:43:46;15.93;;;5.17;;
44272;SDS011;29964;17.182;-96.766;2023-05-07T07:46:13;5.03;;;3.63;;
44272;SDS011;29964;17.182;-96.766;2023-05-07T07:48:40;8.03;;;5.33;;
44272;SDS011;29964;17.182;-96.766;2023-05-07T07:51:07;6.77;;;4.23;;
44272;SDS011;29964;17.182;-96.766;2023-05-07T07:53:33;10.20;;;4.80;;
44272;SDS011;29964;17.182;-96.766;2023-05-07T07:56:00;6.27;;;4.37;;
44272;SDS011;29964;17.182;-96.766;2023-05-07T07:58:27;5.73;;;4.10;;
44272;SDS011;29964;17.182;-96.766;2023-05-07T08:00:54;8.60;;;5.80;;
44272;SDS011;29964;17.182;-96.766;2023-05-07T08:03:21;8.93;;;4.30;;
44272;SDS011;29964;17.182;-96.766;2023-05-07T08:05:48;8.63;;;5.00;;
44272;SDS011;29964;17.182;-96.766;2023-05-07T08:08:16;8.33;;;5.80;;
44272;SDS011;29964;17.182;-96.766;2023-05-07T08:10:43;7.63;;;5.67;;
44272;SDS011;29964;17.182;-96.766;2023-05-07T08:13:09;7.07;;;5.07;;
44272;SDS011;29964;17.182;-96.766;2023-05-07T08:15:36;9.87;;;5.53;;
44272;SDS011;29964;17.182;-96.766;2023-05-07T08:18:03;5.57;;;4.50;;
44272;SDS011;29964;17.182;-96.766;2023-05-07T08:20:30;9.17;;;4.13;;
44272;SDS011;29964;17.182;-96.766;2023-05-07T08:22:57;4.73;;;3.83;;
44272;SDS011;29964;17.182;-96.766;2023-05-07T08:25:23;6.20;;;4.47;;
44272;SDS011;29964;17.182;-96.766;2023-05-07T08:27:50;6.23;;;4.70;;
44272;SDS011;29964;17.182;-96.766;2023-05-07T08:30:17;9.87;;;4.70;;
44272;SDS011;29964;17.182;-96.766;2023-05-07T08:32:44;5.93;;;3.90;;
44272;SDS011;29964;17.182;-96.766;2023-05-07T08:35:10;10.80;;;5.73;;
44272;SDS011;29964;17.182;-96.766;2023-05-07T08:37:37;6.87;;;5.43;;
44272;SDS011;29964;17.182;-96.766;2023-05-07T08:40:04;10.10;;;6.87;;
44272;SDS011;29964;17.182;-96.766;2023-05-07T08:42:31;8.87;;;6.17;;
44272;SDS011;29964;17.182;-96.766;2023-05-07T08:45:05;11.23;;;6.30;;
44272;SDS011;29964;17.182;-96.766;2023-05-07T08:47:46;8.67;;;5.77;;
44272;SDS011;29964;17.182;-96.766;2023-05-07T08:50:13;9.00;;;5.50;;
44272;SDS011;29964;17.182;-96.766;2023-05-07T08:52:40;9.57;;;4.87;;
44272;SDS011;29964;17.182;-96.766;2023-05-07T08:55:07;8.13;;;3.60;;
44272;SDS011;29964;17.182;-96.766;2023-05-07T08:57:34;10.07;;;4.60;;
44272;SDS011;29964;17.182;-96.766;2023-05-07T09:00:02;3.77;;;2.73;;
44272;SDS011;29964;17.182;-96.766;2023-05-07T09:02:29;12.37;;;7.10;;
44272;SDS011;29964;17.182;-96.766;2023-05-07T09:04:56;8.73;;;5.70;;
44272;SDS011;29964;17.182;-96.766;2023-05-07T09:07:23;10.07;;;6.03;;
44272;SDS011;29964;17.182;-96.766;2023-05-07T09:09:50;10.57;;;5.97;;
44272;SDS011;29964;17.182;-96.766;2023-05-07T09:12:23;5.70;;;4.07;;
44272;SDS011;29964;17.182;-96.766;2023-05-07T09:14:50;7.20;;;3.60;;
44272;SDS011;29964;17.182;-96.766;2023-05-07T09:17:17;5.27;;;4.17;;
44272;SDS011;29964;17.182;-96.766;2023-05-07T09:19:44;7.83;;;4.50;;
44272;SDS011;29964;17.182;-96.766;2023-05-07T09:22:11;5.53;;;3.60;;
44272;SDS011;29964;17.182;-96.766;2023-05-07T09:24:38;5.30;;;3.30;;
44272;SDS011;29964;17.182;-96.766;2023-05-07T09:27:05;7.27;;;2.83;;
44272;SDS011;29964;17.182;-96.766;2023-05-07T09:29:32;7.10;;;3.53;;
44272;SDS011;29964;17.182;-96.766;2023-05-07T09:32:05;5.40;;;3.93;;
44272;SDS011;29964;17.182;-96.766;2023-05-07T09:34:32;6.13;;;4.13;;
44272;SDS011;29964;17.182;-96.766;2023-05-07T09:37:01;6.33;;;3.23;;
44272;SDS011;29964;17.182;-96.766;2023-05-07T09:39:49;4.03;;;3.30;;
44272;SDS011;29964;17.182;-96.766;2023-05-07T09:42:15;2.83;;;2.03;;
44272;SDS011;29964;17.182;-96.766;2023-05-07T09:44:45;3.20;;;2.07;;
44272;SDS011;29964;17.182;-96.766;2023-05-07T09:47:14;2.60;;;1.73;;
44272;SDS011;29964;17.182;-96.766;2023-05-07T09:49:46;4.00;;;2.00;;
44272;SDS011;29964;17.182;-96.766;2023-05-07T09:52:13;2.47;;;1.57;;
44272;SDS011;29964;17.182;-96.766;2023-05-07T09:54:40;2.20;;;1.53;;
44272;SDS011;29964;17.182;-96.766;2023-05-07T09:57:11;2.43;;;1.73;;
44272;SDS011;29964;17.182;-96.766;2023-05-07T09:59:38;2.37;;;1.80;;
44272;SDS011;29964;17.182;-96.766;2023-05-07T10:02:05;9.77;;;2.43;;
44272;SDS011;29964;17.182;-96.766;2023-05-07T10:04:31;3.57;;;2.50;;
44272;SDS011;29964;17.182;-96.766;2023-05-07T10:06:58;2.80;;;2.10;;
44272;SDS011;29964;17.182;-96.766;2023-05-07T10:09:25;2.47;;;1.70;;
44272;SDS011;29964;17.182;-96.766;2023-05-07T10:11:52;2.63;;;1.93;;
44272;SDS011;29964;17.182;-96.766;2023-05-07T10:14:21;2.43;;;1.80;;
44272;SDS011;29964;17.182;-96.766;2023-05-07T10:16:48;4.13;;;2.27;;
44272;SDS011;29964;17.182;-96.766;2023-05-07T10:19:14;3.27;;;2.23;;
44272;SDS011;29964;17.182;-96.766;2023-05-07T10:21:45;2.53;;;1.93;;
44272;SDS011;29964;17.182;-96.766;2023-05-07T10:24:22;4.07;;;2.20;;
44272;SDS011;29964;17.182;-96.766;2023-05-07T10:26:51;5.50;;;1.33;;
44272;SDS011;29964;17.182;-96.766;2023-05-07T10:30:07;2.40;;;1.53;;
44272;SDS011;29964;17.182;-96.766;2023-05-07T10:34:39;2.13;;;1.40;;
44272;SDS011;29964;17.182;-96.766;2023-05-07T10:37:07;3.83;;;2.20;;
44272;SDS011;29964;17.182;-96.766;2023-05-07T10:39:34;1.67;;;1.17;;
44272;SDS011;29964;17.182;-96.766;2023-05-07T10:42:10;3.07;;;1.70;;
44272;SDS011;29964;17.182;-96.766;2023-05-07T10:44:37;3.40;;;1.87;;
44272;SDS011;29964;17.182;-96.766;2023-05-07T10:47:08;2.37;;;1.43;;
44272;SDS011;29964;17.182;-96.766;2023-05-07T10:49:35;3.03;;;2.00;;
44272;SDS011;29964;17.182;-96.766;2023-05-07T10:54:42;3.60;;;2.67;;
44272;SDS011;29964;17.182;-96.766;2023-05-07T10:59:56;6.85;;;2.53;;
44272;SDS011;29964;17.182;-96.766;2023-05-07T11:02:23;6.03;;;2.20;;
44272;SDS011;29964;17.182;-96.766;2023-05-07T11:07:35;4.47;;;2.97;;
44272;SDS011;29964;17.182;-96.766;2023-05-07T11:10:02;4.80;;;3.23;;
44272;SDS011;29964;17.182;-96.766;2023-05-07T11:15:09;4.10;;;2.60;;
44272;SDS011;29964;17.182;-96.766;2023-05-07T11:20:21;5.10;;;3.30;;
44272;SDS011;29964;17.182;-96.766;2023-05-07T11:23:15;5.73;;;3.50;;
44272;SDS011;29964;17.182;-96.766;2023-05-07T11:26:05;2.03;;;1.60;;
44272;SDS011;29964;17.182;-96.766;2023-05-07T11:28:39;4.43;;;2.77;;
44272;SDS011;29964;17.182;-96.766;2023-05-07T11:31:07;5.10;;;3.15;;
44272;SDS011;29964;17.182;-96.766;2023-05-07T11:33:35;4.60;;;3.50;;
44272;SDS011;29964;17.182;-96.766;2023-05-07T11:36:02;5.63;;;4.07;;
44272;SDS011;29964;17.182;-96.766;2023-05-07T11:38:29;5.70;;;3.90;;
44272;SDS011;29964;17.182;-96.766;2023-05-07T11:40:57;5.97;;;3.70;;
44272;SDS011;29964;17.182;-96.766;2023-05-07T11:43:26;5.43;;;4.10;;
44272;SDS011;29964;17.182;-96.766;2023-05-07T11:45:53;5.87;;;3.83;;
44272;SDS011;29964;17.182;-96.766;2023-05-07T11:48:20;9.63;;;3.63;;
44272;SDS011;29964;17.182;-96.766;2023-05-07T11:50:51;7.83;;;3.07;;
44272;SDS011;29964;17.182;-96.766;2023-05-07T11:53:18;10.53;;;3.30;;
44272;SDS011;29964;17.182;-96.766;2023-05-07T11:55:46;4.90;;;2.93;;
44272;SDS011;29964;17.182;-96.766;2023-05-07T11:58:12;5.63;;;3.33;;
44272;SDS011;29964;17.182;-96.766;2023-05-07T12:00:53;5.53;;;3.53;;
44272;SDS011;29964;17.182;-96.766;2023-05-07T12:03:20;8.47;;;4.27;;
44272;SDS011;29964;17.182;-96.766;2023-05-07T12:05:47;5.47;;;3.97;;
44272;SDS011;29964;17.182;-96.766;2023-05-07T12:08:14;8.40;;;4.13;;
44272;SDS011;29964;17.182;-96.766;2023-05-07T12:10:42;6.73;;;4.20;;
44272;SDS011;29964;17.182;-96.766;2023-05-07T12:13:16;4.40;;;2.87;;
44272;SDS011;29964;17.182;-96.766;2023-05-07T12:15:42;3.93;;;2.97;;
44272;SDS011;29964;17.182;-96.766;2023-05-07T12:18:10;7.10;;;4.33;;
44272;SDS011;29964;17.182;-96.766;2023-05-07T12:20:37;6.73;;;4.03;;
44272;SDS011;29964;17.182;-96.766;2023-05-07T12:23:04;6.93;;;4.00;;
44272;SDS011;29964;17.182;-96.766;2023-05-07T12:25:32;9.77;;;4.13;;
44272;SDS011;29964;17.182;-96.766;2023-05-07T12:28:00;7.43;;;3.90;;
44272;SDS011;29964;17.182;-96.766;2023-05-07T12:30:27;6.97;;;3.50;;
44272;SDS011;29964;17.182;-96.766;2023-05-07T12:32:54;4.60;;;2.70;;
44272;SDS011;29964;17.182;-96.766;2023-05-07T12:35:27;7.30;;;4.37;;
44272;SDS011;29964;17.182;-96.766;2023-05-07T12:37:55;3.23;;;2.33;;
44272;SDS011;29964;17.182;-96.766;2023-05-07T12:40:22;9.50;;;2.93;;
44272;SDS011;29964;17.182;-96.766;2023-05-07T12:42:48;5.70;;;3.30;;
44272;SDS011;29964;17.182;-96.766;2023-05-07T12:45:20;3.23;;;2.57;;
44272;SDS011;29964;17.182;-96.766;2023-05-07T12:47:47;2.23;;;1.80;;
44272;SDS011;29964;17.182;-96.766;2023-05-07T12:50:15;5.03;;;2.73;;
44272;SDS011;29964;17.182;-96.766;2023-05-07T12:52:43;6.70;;;3.47;;
44272;SDS011;29964;17.182;-96.766;2023-05-07T12:55:12;10.50;;;3.53;;
44272;SDS011;29964;17.182;-96.766;2023-05-07T12:57:41;5.90;;;2.83;;
44272;SDS011;29964;17.182;-96.766;2023-05-07T13:00:08;4.70;;;2.93;;
44272;SDS011;29964;17.182;-96.766;2023-05-07T13:02:39;4.03;;;2.60;;
44272;SDS011;29964;17.182;-96.766;2023-05-07T13:05:06;4.83;;;3.43;;
44272;SDS011;29964;17.182;-96.766;2023-05-07T13:07:33;4.17;;;3.27;;
44272;SDS011;29964;17.182;-96.766;2023-05-07T13:10:00;5.87;;;2.90;;
44272;SDS011;29964;17.182;-96.766;2023-05-07T13:12:27;5.47;;;3.60;;
44272;SDS011;29964;17.182;-96.766;2023-05-07T13:14:53;10.77;;;2.87;;
44272;SDS011;29964;17.182;-96.766;2023-05-07T13:17:20;15.37;;;2.90;;
44272;SDS011;29964;17.182;-96.766;2023-05-07T13:19:47;7.13;;;3.63;;
44272;SDS011;29964;17.182;-96.766;2023-05-07T13:22:14;7.40;;;3.87;;
44272;SDS011;29964;17.182;-96.766;2023-05-07T13:24:40;12.77;;;3.27;;
44272;SDS011;29964;17.182;-96.766;2023-05-07T13:27:08;7.43;;;3.13;;
44272;SDS011;29964;17.182;-96.766;2023-05-07T13:29:35;6.97;;;2.80;;
44272;SDS011;29964;17.182;-96.766;2023-05-07T13:32:02;6.07;;;2.90;;
44272;SDS011;29964;17.182;-96.766;2023-05-07T13:34:29;3.97;;;2.43;;
44272;SDS011;29964;17.182;-96.766;2023-05-07T13:36:56;3.27;;;2.33;;
44272;SDS011;29964;17.182;-96.766;2023-05-07T13:39:22;4.90;;;2.70;;
44272;SDS011;29964;17.182;-96.766;2023-05-07T13:41:49;3.97;;;2.43;;
44272;SDS011;29964;17.182;-96.766;2023-05-07T13:44:16;8.53;;;2.00;;
44272;SDS011;29964;17.182;-96.766;2023-05-07T13:46:43;3.97;;;1.93;;
44272;SDS011;29964;17.182;-96.766;2023-05-07T13:49:10;6.77;;;3.43;;
44272;SDS011;29964;17.182;-96.766;2023-05-07T13:51:38;4.00;;;2.83;;
44272;SDS011;29964;17.182;-96.766;2023-05-07T13:54:04;6.27;;;2.93;;
44272;SDS011;29964;17.182;-96.766;2023-05-07T13:56:31;22.80;;;5.63;;
44272;SDS011;29964;17.182;-96.766;2023-05-07T13:58:58;5.67;;;3.50;;
44272;SDS011;29964;17.182;-96.766;2023-05-07T14:01:25;6.00;;;3.83;;
44272;SDS011;29964;17.182;-96.766;2023-05-07T14:03:52;7.53;;;4.40;;
44272;SDS011;29964;17.182;-96.766;2023-05-07T14:06:18;5.97;;;3.30;;
44272;SDS011;29964;17.182;-96.766;2023-05-07T14:08:45;5.97;;;3.07;;
44272;SDS011;29964;17.182;-96.766;2023-05-07T14:11:12;4.03;;;2.63;;
44272;SDS011;29964;17.182;-96.766;2023-05-07T14:13:39;9.17;;;3.47;;
44272;SDS011;29964;17.182;-96.766;2023-05-07T14:16:06;5.70;;;2.80;;
44272;SDS011;29964;17.182;-96.766;2023-05-07T14:18:33;2.63;;;2.00;;
44272;SDS011;29964;17.182;-96.766;2023-05-07T14:21:02;7.17;;;3.80;;
44272;SDS011;29964;17.182;-96.766;2023-05-07T14:23:29;5.77;;;3.20;;
44272;SDS011;29964;17.182;-96.766;2023-05-07T14:25:56;7.87;;;4.37;;
44272;SDS011;29964;17.182;-96.766;2023-05-07T14:28:23;6.37;;;3.80;;
44272;SDS011;29964;17.182;-96.766;2023-05-07T14:30:50;10.63;;;4.40;;
44272;SDS011;29964;17.182;-96.766;2023-05-07T14:33:17;8.30;;;5.00;;